Date,TemperatureHighF,TemperatureAvgF,TemperatureLowF,DewpointHighF,DewpointAvgF,DewpointLowF,HumidityHigh,HumidityAvg,HumidityLow,PressureMaxIn,PressureMinIn,WindSpeedMaxMPH,WindSpeedAvgMPH,GustSpeedMaxMPH,PrecipitationSumIn
2013-1-1,45,42,39,45,41,24,100,94,54,30.18,30.04,18,3,31,0.00
2013-1-2,42,35,31,42,35,31,100,100,100,30.16,30.02,10,0,18,0.00
2013-1-3,34,30,26,34,30,26,100,100,100,30.31,30.12,11,0,14,0.00
2013-1-4,33,27,24,27,25,23,100,93,76,30.37,30.28,14,1,20,0.00
2013-1-5,44,35,24,34,24,13,93,68,45,30.39,30.26,11,1,15,0.00
2013-1-6,41,36,32,41,36,32,100,99,89,30.28,30.13,16,2,23,0.00
2013-1-7,44,35,26,33,29,22,100,80,54,30.41,30.26,11,1,19,0.00
2013-1-8,50,40,31,44,34,22,100,77,59,30.46,30.33,15,3,19,0.00
2013-1-9,53,50,44,53,50,44,100,100,100,30.62,30.43,15,3,22,0.00
2013-1-10,60,53,49,58,52,49,100,98,90,30.62,30.40,17,2,23,0.00
2013-1-11,58,54,49,58,54,49,100,100,100,30.41,30.26,19,6,30,0.00
2013-1-12,66,59,56,62,57,48,100,93,66,30.38,30.25,16,4,22,0.00
2013-1-13,62,58,55,58,56,54,100,93,84,30.29,30.17,29,9,42,0.00
2013-1-14,56,51,42,56,51,42,100,100,100,30.34,30.21,9,0,14,0.00
2013-1-15,54,52,45,54,52,45,100,100,100,30.26,30.10,12,1,20,0.00
2013-1-16,55,52,48,55,52,48,100,100,100,30.16,30.05,11,1,17,0.00
2013-1-17,49,37,26,49,37,26,100,100,100,30.28,29.89,16,3,21,0.00
2013-1-18,37,29,23,37,29,23,100,100,96,30.52,30.28,9,1,11,0.00
2013-1-19,45,36,31,32,27,24,98,72,48,30.46,30.23,14,5,17,0.00
2013-1-20,45,38,35,38,32,24,94,79,57,30.23,30.16,21,4,33,0.00
2013-1-21,39,33,22,33,27,19,91,78,61,30.17,30.05,24,7,36,0.00
2013-1-22,26,19,14,19,12,7,90,73,50,30.18,30.03,23,9,39,0.00
2013-1-23,38,28,20,34,24,12,92,83,73,30.26,30.09,26,7,35,0.00
2013-1-24,36,27,21,35,22,12,100,81,55,30.34,30.05,39,8,48,0.00
2013-1-25,38,31,22,38,29,14,100,92,69,30.31,30.04,28,6,35,0.00
2013-1-26,41,34,28,34,28,21,100,82,53,30.36,30.14,12,1,20,0.00
2013-1-27,47,38,32,38,30,19,98,73,52,30.46,30.35,10,1,14,0.00
2013-1-28,53,46,38,50,45,37,100,95,88,30.45,30.35,26,8,38,0.00
2013-1-29,61,53,46,56,51,45,100,94,80,30.38,30.13,16,4,26,0.00
2013-1-30,59,52,35,59,52,35,100,100,100,30.13,29.57,35,9,45,0.00
2013-1-31,35,28,23,35,26,23,100,94,84,30.01,29.65,39,12,41,0.00
2013-2-1,34,21,14,31,19,12,100,91,71,30.28,29.92,27,7,40,0.00
2013-2-2,34,27,17,31,25,12,100,90,70,30.27,30.02,17,2,32,0.00
2013-2-3,33,28,23,33,28,23,100,99,95,30.08,29.92,26,10,41,0.00
2013-2-4,44,34,22,34,28,20,100,79,63,30.11,30.01,18,4,22,0.00
2013-2-5,47,40,36,42,34,28,100,81,67,30.09,29.97,20,3,26,0.00
2013-2-6,49,41,35,40,33,28,100,76,46,30.30,30.08,20,3,24,0.00
2013-2-7,46,41,38,42,36,29,100,83,58,30.29,30.03,12,1,15,0.00
2013-2-8,42,38,28,41,38,28,100,100,95,30.23,29.97,21,3,28,0.00
2013-2-9,47,36,25,28,24,19,100,68,39,30.37,30.20,12,2,15,0.00
2013-2-10,48,43,40,47,30,20,100,64,40,30.39,30.16,22,3,39,0.00
2013-2-11,50,47,41,50,44,25,100,89,53,30.19,30.13,25,5,28,0.00
2013-2-12,46,39,34,38,32,26,100,75,53,30.22,29.95,11,2,17,0.00
2013-2-13,45,38,30,45,38,30,100,100,98,29.95,29.70,26,5,32,0.00
2013-2-14,45,35,28,37,32,28,100,90,70,30.11,29.95,14,3,20,0.00
2013-2-15,46,37,29,40,35,29,100,92,70,30.14,30.04,17,1,25,0.00
2013-2-16,29,25,16,29,24,16,100,99,90,30.05,29.87,19,3,34,0.00
2013-2-17,28,20,14,21,17,13,100,87,70,30.22,29.95,23,7,35,0.00
2013-2-18,47,34,24,37,28,17,89,78,60,30.32,30.10,16,2,26,0.00
2013-2-19,41,35,27,41,31,20,100,86,61,30.12,29.95,28,10,43,0.00
2013-2-20,39,29,23,21,15,8,81,57,34,30.18,30.07,21,4,38,0.00
2013-2-21,51,40,27,37,17,2,99,42,21,30.23,30.13,15,2,18,0.00
2013-2-22,48,42,37,48,42,37,100,100,100,30.24,30.10,15,1,25,0.00
2013-2-23,50,46,42,50,46,42,100,100,98,30.12,29.95,11,1,18,0.00
2013-2-24,48,39,34,42,34,27,100,82,46,30.14,29.96,15,3,25,0.00
2013-2-25,47,39,34,38,32,21,100,76,54,30.13,29.97,22,2,27,0.00
2013-2-26,48,41,36,48,41,36,100,99,90,29.97,29.56,34,10,56,0.00
2013-3-6,24,23,23,24,23,23,100,100,100,30.17,30.10,8,1,13,0.00
2013-3-7,33,26,22,33,26,22,100,100,100,30.31,30.15,5,0,8,0.00
2013-3-8,42,32,21,33,26,17,100,80,48,30.39,30.26,9,0,9,0.00
2013-3-9,54,45,35,35,26,15,62,49,41,30.38,30.31,11,1,14,0.00
2013-3-10,60,50,44,41,35,31,71,57,45,30.33,30.23,13,1,21,0.00
2013-3-11,54,49,46,52,47,38,100,95,72,30.23,29.92,28,7,38,0.00
2013-3-12,48,40,34,48,39,34,100,95,75,30.12,29.91,17,2,28,0.00
2013-3-13,36,32,24,34,29,22,100,89,69,30.21,30.07,27,9,37,0.00
2013-3-14,40,28,19,23,20,18,97,75,46,30.30,30.20,16,3,23,0.00
2013-3-15,58,45,30,46,37,20,100,76,43,30.24,30.08,23,7,32,0.00
2013-3-16,66,55,49,50,47,45,87,74,51,30.07,29.97,20,9,31,0.00
2013-3-18,56,49,45,53,48,45,100,98,87,30.10,29.93,19,4,29,0.00
2013-3-19,47,41,34,46,34,19,100,78,48,30.17,29.97,22,4,35,0.00
2013-3-20,44,35,26,30,20,14,100,54,38,30.16,29.90,23,5,32,0.00
2013-3-21,32,24,17,26,19,15,100,85,65,29.94,29.80,22,5,26,0.00
2013-3-22,41,31,20,34,22,14,89,72,49,30.07,29.94,8,0,12,0.00
2013-3-23,48,40,36,48,40,34,100,98,89,30.07,29.90,10,2,14,0.00
2013-3-24,51,43,38,51,43,38,100,100,97,29.96,29.52,19,3,28,0.00
2013-3-25,38,27,23,38,27,23,100,98,92,29.90,29.58,36,10,65,0.00
2013-3-26,31,25,22,31,25,22,100,100,99,30.21,29.90,20,4,26,0.00
2013-3-27,39,29,23,32,27,23,100,92,71,30.30,30.18,15,2,23,0.00
2013-3-28,43,33,25,31,27,24,98,80,54,30.36,30.26,17,2,21,0.00
2013-3-29,45,36,30,39,31,26,100,83,52,30.39,30.31,11,0,20,0.00
2013-3-30,54,44,37,46,41,37,100,90,63,30.31,30.16,11,1,15,0.00
2013-3-31,53,48,44,52,48,44,100,99,87,30.16,29.99,11,2,16,0.00
2013-4-1,51,46,41,47,43,38,100,91,81,30.13,30.00,17,5,28,0.00
2013-4-2,48,39,32,38,29,24,95,72,43,30.25,30.10,22,4,23,0.00
2013-4-3,49,39,30,30,25,20,66,57,46,30.33,30.22,12,4,16,0.00
2013-4-4,42,36,31,37,32,25,100,87,55,30.31,30.01,12,1,18,0.00
2013-4-5,51,41,35,46,39,35,100,94,73,30.22,30.00,13,1,16,0.00
2013-4-6,61,49,40,41,38,36,87,66,46,30.33,30.22,16,3,21,0.00
2013-4-7,65,53,45,46,42,37,82,66,43,30.34,30.25,16,5,23,0.00
2013-4-8,70,59,51,54,50,46,94,75,49,30.32,30.24,17,6,25,0.00
2013-4-9,76,63,55,57,54,50,96,75,42,30.40,30.30,14,4,23,0.00
2013-4-10,75,65,57,59,56,53,94,75,49,30.34,30.16,15,4,20,0.00
2013-4-11,72,63,58,61,57,51,100,82,50,30.18,29.90,15,6,30,0.00
2013-4-12,60,55,46,59,52,41,100,89,62,30.06,29.80,20,5,30,0.00
2013-4-13,63,52,43,43,39,30,94,65,36,30.22,30.05,25,4,30,0.00
2013-4-14,65,54,48,48,41,36,100,62,43,30.23,30.10,14,3,24,0.00
2013-4-15,64,55,48,60,54,48,100,96,81,30.34,30.09,16,5,22,0.00
2013-4-16,69,61,53,62,58,53,100,90,67,30.46,30.34,16,5,21,0.00
2013-4-17,66,61,57,64,60,57,100,96,81,30.47,30.32,22,4,33,0.00
2013-4-18,69,63,58,62,58,55,100,86,63,30.32,30.11,15,4,23,0.00
2013-4-19,62,56,38,62,55,37,100,97,91,30.10,29.92,28,8,34,0.00
2013-4-20,52,41,32,37,34,30,98,77,50,30.39,30.08,20,3,31,0.00
2013-4-21,54,46,40,40,35,30,90,66,51,30.51,30.38,17,3,25,0.00
2013-4-22,57,48,38,47,41,38,100,80,57,30.48,30.31,18,4,21,0.00
2013-4-23,68,52,41,48,41,33,80,66,44,30.36,30.23,15,2,17,0.00
2013-4-24,65,54,45,57,51,45,100,88,66,30.28,30.16,22,8,30,0.00
2013-4-25,59,47,38,48,38,29,100,76,35,30.47,30.27,12,2,17,0.00
2013-4-26,64,50,42,45,37,32,91,62,40,30.53,30.43,15,4,21,0.00
2013-4-27,50,48,46,49,47,44,100,97,82,30.52,30.33,15,2,24,0.00
2013-4-28,51,48,46,51,48,46,100,100,100,30.33,30.10,13,4,23,0.00
2013-4-29,62,54,48,59,53,48,100,96,78,30.18,30.12,13,4,17,0.00
2013-4-30,67,58,52,58,55,52,100,91,60,30.33,30.15,15,2,20,0.00
2013-5-1,61,55,50,57,54,50,100,96,82,30.43,30.32,16,4,24,0.00
2013-5-2,59,53,50,57,53,50,100,99,93,30.43,30.36,15,2,17,0.00
2013-5-3,58,50,48,54,50,48,100,99,86,30.37,30.16,32,6,43,0.00
2013-5-4,48,44,41,48,44,40,100,100,96,30.17,30.03,33,13,42,0.00
2013-5-5,47,45,42,47,45,42,100,100,100,30.07,29.91,43,16,48,0.00
2013-5-6,61,50,46,50,48,46,100,92,60,30.03,29.89,19,4,26,0.00
2013-5-7,62,50,44,52,48,44,100,93,63,30.11,29.99,13,1,18,0.00
2013-5-8,59,52,49,58,52,49,100,100,98,30.24,30.07,18,2,23,0.00
2013-5-9,71,59,51,61,55,51,100,88,56,30.32,30.20,14,2,22,0.00
2013-5-10,69,61,56,64,58,55,100,92,66,30.33,30.18,22,1,26,0.00
2013-5-11,64,58,51,64,58,51,100,100,95,30.20,30.07,23,2,23,0.00
2013-5-12,57,49,44,51,44,34,100,83,52,30.23,30.08,17,3,23,0.00
2013-5-13,57,47,39,39,36,33,84,66,48,30.32,30.20,13,2,24,0.00
2013-5-14,73,56,42,54,44,35,81,65,44,30.38,30.27,12,1,18,0.00
2013-5-15,77,65,55,58,54,50,95,71,42,30.37,30.26,19,2,28,0.00
2013-5-16,73,65,59,62,56,53,89,75,55,30.31,30.24,16,0,18,0.00
2013-5-17,72,64,60,67,61,53,100,88,70,30.35,30.26,9,1,14,0.00
2013-5-18,67,62,59,66,61,57,100,97,83,30.33,30.26,9,1,15,0.00
2013-5-19,72,63,60,68,63,60,100,99,88,30.33,30.24,16,1,25,0.02
2013-5-20,77,66,59,69,64,59,100,93,77,30.37,30.28,7,0,12,0.00
2013-5-21,76,67,62,69,64,59,100,89,67,30.33,30.21,8,0,16,0.00
2013-5-22,76,66,60,68,64,60,100,93,70,30.26,30.13,24,2,24,0.00
2013-5-23,72,63,56,62,60,56,100,90,60,30.20,30.12,24,3,28,0.00
2013-5-24,60,54,48,55,49,42,100,86,58,30.41,30.17,16,3,24,0.00
2013-5-25,67,54,44,49,43,40,92,69,38,30.49,30.38,9,1,15,0.00
2013-5-26,69,59,51,54,49,37,92,70,50,30.47,30.37,10,0,21,0.00
2013-5-27,73,63,55,63,58,51,91,82,70,30.45,30.37,9,1,15,0.00
2013-5-28,78,67,60,65,60,56,98,80,48,30.46,30.35,14,2,20,0.00
2013-5-29,75,66,59,66,61,57,99,84,62,30.49,30.39,13,2,18,0.00
2013-5-30,75,66,60,66,62,59,100,87,72,30.52,30.41,10,2,15,0.00
2013-5-31,78,68,61,65,62,59,100,84,56,30.47,30.37,10,2,20,0.00
2013-6-1,78,69,63,66,63,57,100,83,51,30.38,30.27,17,4,21,0.00
2013-6-2,67,64,61,67,64,61,100,100,100,30.29,30.15,16,1,32,0.00
2013-6-3,71,63,60,66,62,60,100,97,81,30.22,30.14,17,2,20,0.00
2013-6-12,82,76,70,75,72,68,98,86,67,30.36,30.26,10,2,20,0.00
2013-6-13,79,68,63,71,66,63,100,94,71,30.25,30.04,14,3,29,0.01
2013-6-14,70,62,56,63,59,56,100,90,73,30.32,30.11,14,2,18,0.00
2013-6-15,77,66,57,65,61,56,98,84,63,30.39,30.30,12,1,12,0.00
2013-6-16,75,67,61,69,65,61,100,93,75,30.41,30.31,8,0,10,0.00
2013-6-17,74,68,64,72,67,64,100,99,87,30.33,30.23,7,0,10,0.00
2013-6-18,69,64,60,69,64,60,100,100,99,30.23,30.10,16,2,21,0.00
2013-6-19,73,65,59,67,63,59,100,94,78,30.39,30.19,10,2,12,0.00
2013-6-20,72,65,60,68,64,59,100,95,86,30.50,30.37,10,1,14,0.00
2013-6-21,74,67,62,68,64,60,100,90,69,30.53,30.46,10,2,16,0.00
2013-6-22,76,67,61,66,61,55,100,83,53,30.51,30.41,13,2,15,0.00
2013-6-23,72,67,62,69,65,60,100,94,77,30.50,30.41,9,2,15,0.00
2013-6-24,76,69,63,72,67,63,100,96,80,30.52,30.41,10,1,12,0.00
2013-6-25,77,69,64,71,68,64,100,95,80,30.45,30.33,10,0,13,0.00
2013-6-26,79,70,64,74,68,64,100,95,82,30.35,30.22,12,1,16,0.00
2013-6-27,79,69,62,74,68,62,100,97,81,30.26,30.10,13,3,26,0.00
2013-6-28,78,69,64,70,67,64,100,93,72,30.14,29.95,16,4,23,0.00
2013-6-29,76,67,62,66,63,60,100,87,62,30.01,29.93,10,1,14,0.00
2013-6-30,77,67,62,67,64,60,100,90,63,30.08,29.97,10,1,14,0.00
2013-7-1,75,65,61,69,64,61,100,97,77,30.21,30.05,14,2,16,0.00
2013-7-2,79,68,62,70,65,62,100,93,69,30.39,30.19,11,2,17,0.00
2013-7-3,68,64,60,68,64,59,100,100,98,30.48,30.36,8,1,14,0.00
2013-7-4,69,64,60,69,64,60,100,100,100,30.47,30.47,10,3,17,0.00
2013-7-5,75,67,62,72,66,62,100,97,83,30.47,30.47,9,2,15,0.00
2013-7-6,74,67,63,72,67,63,100,98,89,30.47,30.47,9,2,14,0.00
2013-7-7,73,67,65,72,67,65,100,100,95,30.47,30.47,11,2,12,0.00
2013-7-8,76,68,64,72,68,64,100,97,82,30.47,30.47,10,2,13,0.00
2013-7-9,77,70,65,74,69,65,100,97,86,30.47,30.47,9,1,17,0.00
2013-7-10,77,70,65,76,70,65,100,99,94,30.47,30.47,9,1,16,0.00
2013-7-11,74,69,65,72,68,65,100,99,91,0.00,0.00,8,0,12,0.00
2013-7-12,74,68,63,70,67,63,100,97,87,0.00,0.00,12,2,14,0.01
2013-7-13,70,64,60,68,64,60,100,99,94,0.00,0.00,11,3,17,0.00
2013-7-14,65,65,65,65,65,65,100,100,100,0.00,0.00,10,4,18,0.00
2013-7-19,78,72,65,75,71,65,100,96,90,0.00,0.00,19,1,27,0.01
2013-7-20,74,70,66,74,69,66,100,99,95,0.00,0.00,6,0,8,0.00
2013-7-21,73,68,66,73,68,66,100,100,96,0.00,0.00,8,0,14,0.00
2013-7-22,76,69,64,72,68,64,100,97,83,0.00,0.00,12,2,19,0.00
2013-7-23,78,68,63,74,67,63,100,96,81,0.00,0.00,14,2,21,0.00
2013-7-24,76,69,66,72,68,66,100,97,84,0.00,0.00,10,2,14,0.00
2013-7-25,74,67,63,71,66,63,100,95,79,0.00,0.00,8,1,16,0.00
2013-7-26,77,67,61,71,65,61,100,93,67,0.00,0.00,11,1,14,0.00
2013-7-27,74,68,64,70,67,64,100,97,82,0.00,0.00,12,1,13,0.00
2013-7-28,73,67,63,69,65,62,100,95,84,0.00,0.00,15,2,16,0.00
2013-7-29,72,64,59,66,62,58,100,91,72,0.00,0.00,7,1,11,0.00
2013-7-30,73,66,60,68,62,56,100,86,61,0.00,0.00,7,0,9,0.00
2013-7-31,70,66,61,70,65,60,100,98,78,0.00,0.00,10,1,16,0.00
2013-8-1,73,67,64,71,67,64,100,98,86,0.00,0.00,10,1,13,0.00
2013-8-2,76,67,63,71,66,63,100,97,76,0.00,0.00,11,2,13,0.00
2013-8-3,74,68,64,70,66,64,100,94,79,0.00,0.00,14,1,16,0.00
2013-8-4,73,68,63,70,66,62,100,95,83,0.00,0.00,16,2,18,0.00
2013-8-5,77,67,61,70,64,61,100,92,67,0.00,0.00,12,1,14,0.00
2013-8-6,76,68,62,72,67,62,100,96,86,0.00,0.00,8,1,10,0.00
2013-8-7,74,68,66,72,68,66,100,100,94,0.00,0.00,8,1,11,0.00
2013-8-8,77,69,65,74,69,65,100,99,91,0.00,0.00,12,2,13,0.00
2013-8-9,80,70,66,76,70,66,100,99,89,0.00,0.00,10,1,14,0.00
2013-8-10,74,69,66,74,69,66,100,100,100,0.00,0.00,9,1,13,0.00
2013-8-11,76,69,65,74,69,65,100,99,93,0.00,0.00,10,0,13,0.00
2013-8-12,77,69,66,74,69,66,100,99,90,0.00,0.00,8,0,14,0.00
2013-8-13,75,68,65,72,68,65,100,98,88,0.00,0.00,16,2,23,0.00
2013-8-14,65,61,58,65,61,58,100,99,94,0.00,0.00,11,3,13,0.00
2013-8-15,66,60,57,64,60,57,100,99,94,0.00,0.00,10,2,13,0.00
2013-8-16,67,61,56,64,60,56,100,96,85,0.00,0.00,13,2,13,0.00
2013-8-17,66,60,57,65,60,56,100,99,92,0.00,0.00,9,1,14,0.00
2013-8-18,69,63,59,69,63,59,100,100,99,0.00,0.00,8,1,10,0.00
2013-8-19,70,63,61,70,63,61,100,100,100,0.00,0.00,11,1,13,0.00
2013-8-20,70,66,62,70,66,62,100,100,100,0.00,0.00,9,1,12,0.00
2013-8-21,71,67,63,71,67,63,100,100,100,0.00,0.00,8,1,12,0.00
2013-8-22,75,68,63,72,68,63,100,97,87,0.00,0.00,9,1,13,0.00
2013-8-23,74,67,64,71,67,64,100,99,90,0.00,0.00,8,1,13,0.00
2013-8-24,71,65,61,67,64,59,100,96,84,0.00,0.00,10,2,14,0.00
2013-8-25,70,63,58,64,60,56,98,90,72,0.00,0.00,11,2,16,0.00
2013-8-26,71,64,58,66,62,58,100,95,83,0.00,0.00,11,1,14,0.00
2013-8-27,72,67,63,71,66,63,100,98,94,0.00,0.00,9,2,12,0.00
2013-8-28,76,70,66,73,69,66,100,97,84,0.00,0.00,11,2,19,0.00
2013-8-29,78,71,68,75,70,68,100,98,87,0.00,0.00,12,2,21,0.00
2013-8-30,76,70,66,74,70,66,100,98,89,0.00,0.00,11,2,12,0.00
2013-8-31,79,70,66,76,70,66,100,99,89,0.00,0.00,7,0,10,0.00
2013-9-1,74,68,65,73,68,65,100,99,94,0.00,0.00,14,2,23,0.00
2013-9-2,75,68,63,73,68,63,100,98,91,0.00,0.00,9,1,16,0.00
2013-9-3,74,66,58,70,65,58,100,97,83,0.00,0.00,29,3,38,0.00
2013-9-4,73,66,61,71,65,61,100,98,81,0.00,0.00,9,1,12,0.00
2013-9-5,71,66,62,70,63,46,100,91,50,0.00,0.00,9,2,11,0.00
2013-9-6,73,65,60,69,63,56,100,94,76,0.00,0.00,11,2,12,0.00
2013-9-7,73,66,60,68,64,60,100,93,74,0.00,0.00,9,1,14,0.00
2013-9-8,74,68,64,70,66,64,100,97,84,0.00,0.00,10,1,17,0.00
2013-9-9,74,68,64,71,67,64,100,97,87,0.00,0.00,10,1,13,0.00
2013-9-10,75,68,63,71,67,63,100,96,81,0.00,0.00,10,1,13,0.00
2013-9-11,73,68,65,71,68,65,100,98,93,0.00,0.00,7,0,8,0.00
2013-9-12,72,67,62,72,67,62,100,100,95,0.00,0.00,18,1,29,0.00
2013-9-13,67,62,54,64,60,53,100,94,71,0.00,0.00,14,1,16,0.00
2013-9-14,65,56,49,62,56,49,100,98,91,0.00,0.00,14,2,15,0.00
2013-9-15,71,61,55,66,59,55,100,95,79,0.00,0.00,10,1,14,0.00
2013-9-16,68,62,59,65,61,59,100,96,79,0.00,0.00,11,2,16,0.00
2013-9-17,65,60,56,64,60,56,100,99,95,0.00,0.00,10,2,13,0.00
2013-9-18,63,59,54,62,59,54,100,100,96,0.00,0.00,7,1,10,0.00
2013-9-19,70,63,58,68,63,58,100,99,92,0.00,0.00,6,1,12,0.00
2013-9-20,70,65,60,69,64,60,100,99,95,0.00,0.00,10,2,15,0.00
2013-9-21,63,61,57,63,61,57,100,100,100,0.00,0.00,12,3,24,0.00
2013-9-22,61,56,50,59,55,50,100,98,93,0.00,0.00,12,3,13,0.00
2013-9-23,65,58,52,64,57,52,100,99,93,0.00,0.00,8,2,12,0.00
2013-9-24,66,60,53,65,59,53,100,99,95,0.00,0.00,9,2,11,0.00
2013-9-25,61,58,56,61,58,56,100,100,100,0.00,0.00,10,2,14,0.00
2013-9-26,63,59,56,63,58,56,100,100,93,0.00,0.00,8,2,13,0.00
2013-9-27,65,58,53,61,57,53,100,95,72,0.00,0.00,12,2,12,0.00
2013-9-28,64,57,52,61,56,52,100,98,86,0.00,0.00,10,2,14,0.00
2013-9-29,61,56,51,60,55,51,100,99,87,0.00,0.00,12,2,13,0.00
2013-9-30,63,57,54,61,57,54,100,99,94,0.00,0.00,8,1,10,0.00
2013-10-1,67,59,54,64,59,54,100,99,87,0.00,0.00,9,1,11,0.00
2013-10-2,67,61,56,64,60,56,100,97,85,0.00,0.00,10,2,13,0.00
2013-10-3,68,62,58,66,62,58,100,99,94,0.00,0.00,9,1,11,0.00
2013-10-4,69,63,59,67,62,59,100,98,91,0.00,0.00,6,1,9,0.00
2013-10-5,72,65,61,68,64,61,100,97,86,0.00,0.00,8,1,11,0.00
2013-10-6,71,64,60,66,62,60,100,95,78,0.00,0.00,16,4,22,0.00
2013-10-7,62,55,50,62,55,50,100,100,97,0.00,0.00,11,2,14,0.00
2013-10-8,61,52,47,59,51,47,100,95,78,0.00,0.00,11,2,14,0.00
2013-10-9,62,53,48,60,52,47,100,97,92,0.00,0.00,12,2,14,0.00
2013-10-15,62,61,60,61,60,59,99,98,96,0.00,40.00,8,6,9,0.00
2013-10-16,64,62,60,61,60,54,100,96,91,0.00,0.00,9,2,11,0.00
2013-10-17,65,59,56,65,59,56,100,100,100,0.00,0.00,18,4,19,0.00
2013-10-18,58,51,46,56,50,46,100,98,91,0.00,0.00,12,2,19,0.00
2013-10-19,57,53,50,54,51,50,100,94,79,0.00,0.00,13,2,20,0.00
2013-10-20,54,45,38,46,42,38,100,90,69,0.00,0.00,15,3,21,0.00
2013-10-21,60,49,43,50,45,41,100,89,50,0.00,0.00,13,2,16,0.00
2013-10-22,60,53,49,54,50,48,100,92,80,0.00,0.00,11,1,15,0.00
2013-10-23,48,43,37,48,42,35,100,96,91,0.00,0.00,40,7,40,0.00
2013-10-24,44,37,33,41,36,32,100,95,85,0.00,0.00,18,3,26,0.00
2013-10-25,38,33,27,37,31,27,100,94,78,0.00,0.00,16,2,21,0.00
2013-10-26,51,37,29,37,31,28,98,83,53,0.00,0.00,11,2,13,0.00
2013-10-27,55,48,43,52,47,43,100,97,90,0.00,0.00,25,4,29,0.00
2013-10-28,56,50,48,55,50,48,100,100,94,0.00,0.00,13,1,14,0.00
2013-10-29,60,52,48,54,51,48,100,94,74,0.00,0.00,10,1,12,0.00
2013-10-30,64,57,52,59,55,51,100,94,84,0.00,0.00,12,2,14,0.00
2013-10-31,60,57,56,58,56,55,100,96,90,0.00,0.00,24,7,34,0.00
2013-11-1,64,59,54,60,56,53,100,93,72,0.00,0.00,25,5,52,0.00
2013-11-2,51,47,41,47,45,41,100,93,79,29.99,0.00,22,4,28,0.00
2013-11-3,42,41,41,42,41,41,100,100,100,29.98,29.98,0,0,4,0.00
2013-11-4,50,43,38,41,38,36,93,82,66,30.37,30.25,12,2,13,0.00
2013-11-5,55,45,37,40,35,27,93,71,46,30.40,30.33,11,2,12,0.00
2013-11-6,63,54,48,57,52,46,100,94,80,30.34,30.10,22,4,23,0.00
2013-11-7,54,46,34,53,45,34,100,99,94,30.12,30.01,19,4,20,0.00
2013-11-8,44,36,31,33,28,24,98,76,50,30.23,30.12,16,3,20,0.00
2013-11-9,45,38,36,30,28,26,71,67,56,30.21,30.16,8,3,9,0.00
2013-11-10,55,47,41,41,33,21,81,60,36,30.24,30.16,19,4,20,2.03
2013-11-11,48,42,40,31,30,28,64,61,52,30.22,30.12,0,0,12,0.00
2013-11-12,48,35,18,40,29,18,100,80,46,30.28,30.04,19,4,29,0.00
2013-11-13,32,24,16,25,21,16,100,86,61,30.38,30.27,18,4,21,0.00
2013-11-14,47,39,30,27,22,16,70,50,42,30.31,30.18,10,2,10,0.00
2013-11-15,48,44,38,47,38,16,100,84,36,30.20,30.08,18,4,20,0.00
2013-11-16,59,51,47,57,51,47,100,99,91,30.19,30.11,18,4,23,0.00
2013-11-17,59,56,51,59,55,51,100,100,97,30.14,29.88,22,7,36,0.00
2013-11-18,58,49,38,58,45,35,100,87,63,30.02,29.87,22,5,38,0.00
2013-11-19,43,36,31,36,30,24,94,80,47,30.08,29.99,14,4,18,15.38
2013-11-20,38,37,35,31,30,29,83,77,69,30.09,30.00,12,5,20,0.02
2013-11-22,59,56,51,59,56,51,100,100,98,30.24,30.14,15,6,44,0.00
2013-11-23,51,41,26,51,41,24,100,99,94,30.16,30.08,18,4,22,0.75
2013-11-24,26,20,17,25,17,8,99,87,52,30.25,30.10,14,2,151,0.00
2013-11-25,39,31,22,39,24,10,100,75,54,30.22,30.05,9,3,17,0.02
2013-11-26,141,42,37,43,34,-11,100,90,4,30.05,29.58,14,3,239,10.00
2013-11-27,38,25,16,38,25,16,100,100,100,29.99,29.56,15,0,215,6.67
2013-11-28,40,28,15,34,24,15,100,86,56,30.29,29.98,10,0,18,0.00
2013-11-29,41,36,29,33,26,-33,81,69,44,30.67,30.28,12,2,21,0.00
2013-11-30,45,36,29,36,30,27,93,80,60,30.38,30.18,8,2,207,0.03
2013-12-1,46,40,36,41,38,28,100,92,74,30.18,29.90,14,4,17,0.00
2013-12-2,48,42,38,46,42,33,100,97,93,29.91,29.71,12,1,42,6.40
2013-12-3,43,42,42,43,42,42,100,100,100,29.76,29.75,6,2,9,0.00
2013-12-5,62,60,58,60,59,58,100,98,92,30.06,30.00,17,5,22,0.00
2013-12-6,63,59,50,62,59,50,100,99,95,30.06,29.94,24,7,35,0.00
2013-12-7,52,39,34,52,39,34,100,100,100,30.23,30.02,9,2,11,0.00
2013-12-8,51,44,37,51,44,37,100,100,100,30.20,30.02,24,3,62,0.08
2013-12-9,53,49,43,52,18,0,100,34,100,30.05,29.91,26,4,159,0.00
2013-12-10,45,34,25,27,6,0,100,23,100,30.16,29.84,24,4,31,0.00
2013-12-11,38,30,24,33,12,0,100,45,100,30.25,30.13,23,3,29,0.00
2013-12-12,31,26,22,30,23,0,100,89,100,30.24,30.15,14,2,17,0.00
2013-12-13,39,32,24,30,10,0,100,37,100,30.18,30.05,11,2,11,0.00
2013-12-14,46,41,36,0,0,0,0,0,100,30.05,29.67,22,6,26,0.00
2013-12-15,45,31,26,29,9,0,100,34,100,29.96,29.66,18,5,27,0.00
2013-12-16,43,35,29,30,2,0,100,7,100,30.05,29.94,18,3,22,0.00
2013-12-17,46,38,30,0,0,0,0,0,100,30.03,29.86,30,5,44,0.00
2013-12-18,38,31,24,27,7,0,100,27,100,30.15,29.96,22,4,29,0.00
2013-12-19,52,45,35,52,14,0,100,23,44,30.21,30.09,16,6,22,0.00
2013-12-20,56,48,42,53,39,24,100,72,46,30.13,30.05,24,7,27,0.00
2013-12-21,60,56,50,60,56,50,100,100,100,30.07,29.90,30,9,39,0.00
2013-12-22,61,55,50,61,55,50,100,100,100,30.07,29.90,28,6,46,0.00
2013-12-23,51,43,32,51,43,32,100,100,100,30.11,29.97,16,2,21,0.00
2013-12-24,32,25,19,32,25,19,100,100,100,30.20,30.08,17,2,20,0.00
2013-12-25,35,28,20,29,22,13,100,78,61,30.22,30.12,11,1,12,0.00
2013-12-26,39,32,28,32,28,25,100,88,71,30.20,30.11,14,1,17,0.00
2013-12-27,43,35,29,32,28,24,100,79,60,30.30,30.16,7,0,7,0.00
2013-12-28,48,40,35,42,30,19,100,69,38,30.27,29.90,16,2,26,0.00
2013-12-29,47,41,36,47,41,36,100,100,100,29.91,29.71,23,4,28,0.00
2013-12-30,38,34,30,38,34,30,100,100,100,30.01,29.88,21,3,26,0.00
2013-12-31,34,30,27,31,24,16,100,81,55,30.20,29.98,23,3,30,0.00
2014-1-1,42,36,30,27,21,18,68,56,44,30.19,29.95,14,5,17,0.00
2014-1-2,43,35,13,43,34,13,100,97,69,29.95,29.57,30,7,41,0.00